createdAt,value
2019-05-16T00:01:19.409Z,10.90
2019-05-16T00:03:48.962Z,10.90
2019-05-16T00:06:18.807Z,10.90
2019-05-16T00:08:48.226Z,10.90
2019-05-16T00:11:17.966Z,10.80
2019-05-16T00:13:48.842Z,10.70
2019-05-16T00:16:18.727Z,10.60
2019-05-16T00:18:48.109Z,10.60
2019-05-16T00:21:17.934Z,10.60
2019-05-16T00:23:48.521Z,10.60
2019-05-16T00:26:19.696Z,10.60
2019-05-16T00:28:48.567Z,10.60
2019-05-16T00:31:18.343Z,10.60
2019-05-16T00:33:48.701Z,10.50
2019-05-16T00:36:18.941Z,10.50
2019-05-16T00:38:48.534Z,10.50
2019-05-16T00:41:18.088Z,10.50
2019-05-16T00:43:48.574Z,10.60
2019-05-16T00:46:20.013Z,10.60
2019-05-16T00:48:48.861Z,10.60
2019-05-16T00:51:18.432Z,10.60
2019-05-16T00:53:48.322Z,10.60
2019-05-16T00:56:18.773Z,10.70
2019-05-16T00:58:48.484Z,10.70
2019-05-16T01:01:19.300Z,10.70
2019-05-16T01:03:48.385Z,10.60
2019-05-16T01:06:22.525Z,10.60
2019-05-16T01:08:48.733Z,10.70
2019-05-16T01:11:18.448Z,10.70
2019-05-16T01:13:48.775Z,10.70
2019-05-16T01:16:18.691Z,10.70
2019-05-16T01:18:48.682Z,10.70
2019-05-16T01:21:18.554Z,10.70
2019-05-16T01:23:48.294Z,10.40
2019-05-16T01:26:18.624Z,10.40
2019-05-16T01:28:48.394Z,10.50
2019-05-16T01:31:19.071Z,10.30
2019-05-16T01:33:48.450Z,10.20
2019-05-16T01:36:26.224Z,9.90
2019-05-16T01:38:48.211Z,10.10
2019-05-16T01:41:18.012Z,10.10
2019-05-16T01:43:48.311Z,10.10
2019-05-16T01:46:18.010Z,10.10
2019-05-16T01:48:48.449Z,10.20
2019-05-16T01:51:18.448Z,10.30
2019-05-16T01:53:48.810Z,10.30
2019-05-16T01:56:18.147Z,10.40
2019-05-16T01:58:49.058Z,10.40
2019-05-16T02:01:19.023Z,10.40
2019-05-16T02:15:31.817Z,10.40
2019-05-16T02:18:00.911Z,10.90
2019-05-16T02:20:29.770Z,10.90
2019-05-16T02:22:58.645Z,10.80
2019-05-16T02:25:27.739Z,10.80
2019-05-16T02:27:58.845Z,10.70
2019-05-16T02:30:27.528Z,10.70
2019-05-16T02:33:00.930Z,10.70
2019-05-16T02:35:31.098Z,10.60
2019-05-16T02:38:01.034Z,10.70
2019-05-16T02:40:31.275Z,10.60
2019-05-16T02:43:01.767Z,10.50
2019-05-16T02:45:32.453Z,10.50
2019-05-16T02:48:01.783Z,10.50
2019-05-16T02:50:31.795Z,10.50
2019-05-16T02:53:01.614Z,10.50
2019-05-16T02:55:31.008Z,10.50
2019-05-16T02:58:00.700Z,10.40
2019-05-16T03:00:41.968Z,10.40
2019-05-16T03:03:07.994Z,10.40
2019-05-16T03:05:36.846Z,10.30
2019-05-16T03:08:06.081Z,10.30
2019-05-16T03:10:35.620Z,10.30
2019-05-16T03:13:04.562Z,10.40
2019-05-16T03:15:33.788Z,10.50
2019-05-16T03:18:04.313Z,10.40
2019-05-16T03:20:34.723Z,10.20
2019-05-16T03:23:03.610Z,10.30
2019-05-16T03:25:32.465Z,10.20
2019-05-16T03:28:02.111Z,10.20
2019-05-16T03:30:34.798Z,10.20
2019-05-16T03:33:04.583Z,10.30
2019-05-16T03:35:33.916Z,10.30
2019-05-16T03:38:05.472Z,10.40
2019-05-16T03:40:34.922Z,10.40
2019-05-16T03:43:03.804Z,10.40
2019-05-16T03:45:32.706Z,10.30
2019-05-16T03:48:02.793Z,10.30
2019-05-16T03:50:32.261Z,10.30
2019-05-16T03:53:01.753Z,10.30
2019-05-16T03:55:32.486Z,10.40
2019-05-16T03:58:01.725Z,10.30
2019-05-16T04:00:52.692Z,10.30
2019-05-16T04:03:21.902Z,10.30
2019-05-16T04:05:52.473Z,10.30
2019-05-16T04:08:25.028Z,10.30
2019-05-16T04:10:52.666Z,10.30
2019-05-16T04:13:22.076Z,10.30
2019-05-16T04:15:52.217Z,10.30
2019-05-16T04:18:22.580Z,10.30
2019-05-16T04:20:52.551Z,10.30
2019-05-16T04:23:21.950Z,10.30
2019-05-16T04:25:52.245Z,10.30
2019-05-16T04:28:22.572Z,10.30
2019-05-16T04:30:51.837Z,10.30
2019-05-16T12:45:07.038Z,10.50
2019-05-16T12:47:37.521Z,10.50
2019-05-16T12:50:07.333Z,10.70
2019-05-16T12:52:38.325Z,10.80
2019-05-16T12:55:07.127Z,10.80
2019-05-16T12:57:38.368Z,10.80
2019-05-16T13:00:15.268Z,10.70
2019-05-16T13:02:39.301Z,10.60
2019-05-16T13:05:09.716Z,10.50
2019-05-16T13:07:38.667Z,10.50
2019-05-16T13:10:08.177Z,10.50
2019-05-16T13:12:37.819Z,10.40
2019-05-16T13:15:07.716Z,10.50
2019-05-16T13:17:37.409Z,10.50
2019-05-16T13:20:08.062Z,10.50
2019-05-16T13:22:38.304Z,10.60
2019-05-16T13:25:08.198Z,10.60
2019-05-16T13:27:37.639Z,10.50
2019-05-16T13:30:07.721Z,10.50
2019-05-16T13:32:37.514Z,10.50
2019-05-16T13:35:07.734Z,10.50
2019-05-16T13:37:36.828Z,10.60
2019-05-16T13:40:07.888Z,10.50
2019-05-16T13:42:36.920Z,10.50
2019-05-16T13:45:07.029Z,10.50
2019-05-16T13:47:37.642Z,10.50
2019-05-16T13:50:11.968Z,10.50
2019-05-16T13:52:38.808Z,10.40
2019-05-16T13:55:08.560Z,10.50
2019-05-16T13:57:37.727Z,10.60
2019-05-16T14:00:07.987Z,10.60
2019-05-16T14:02:37.753Z,10.60
2019-05-16T14:05:07.755Z,10.70
2019-05-16T14:07:37.399Z,10.70
2019-05-16T14:10:07.681Z,10.80
2019-05-16T14:12:36.804Z,11.00
2019-05-16T14:15:08.019Z,11.00
2019-05-16T14:17:37.405Z,11.00
2019-05-16T14:20:14.728Z,10.90
2019-05-16T14:22:38.751Z,10.90
2019-05-16T14:25:08.016Z,11.00
2019-05-16T14:27:38.106Z,11.00
2019-05-16T14:30:08.354Z,11.00
2019-05-16T14:32:41.127Z,11.00
2019-05-16T14:35:08.863Z,11.10
2019-05-16T14:37:38.385Z,11.10
2019-05-16T14:40:08.067Z,11.10
2019-05-16T14:42:38.613Z,11.10
2019-05-16T14:45:12.068Z,11.20
2019-05-16T14:47:40.279Z,11.20
2019-05-16T14:50:13.825Z,11.20
2019-05-16T14:52:40.515Z,11.20
2019-05-16T14:55:09.649Z,11.30
2019-05-16T14:57:38.795Z,11.30
2019-05-16T15:00:09.101Z,11.30
2019-05-16T15:02:38.780Z,11.30
2019-05-16T15:05:09.682Z,11.40
2019-05-16T15:07:38.495Z,11.40
2019-05-16T15:10:08.162Z,11.50
2019-05-16T15:12:37.774Z,11.60
2019-05-16T15:15:20.130Z,11.50
2019-05-16T15:17:38.150Z,11.50
2019-05-16T15:20:07.527Z,11.60
2019-05-16T15:22:38.247Z,11.50
2019-05-16T15:25:08.523Z,11.50
2019-05-16T15:27:37.638Z,11.50
2019-05-16T15:30:08.352Z,11.60
2019-05-16T15:32:38.571Z,11.70
2019-05-16T15:35:08.493Z,11.60
2019-05-16T15:37:37.758Z,11.60
2019-05-16T15:40:07.303Z,11.60
2019-05-16T15:42:37.221Z,11.60
2019-05-16T15:45:07.144Z,11.60
2019-05-16T15:47:37.597Z,11.60
2019-05-16T15:50:08.154Z,11.70
2019-05-16T15:52:38.444Z,11.80
2019-05-16T15:55:10.034Z,11.70
2019-05-16T15:57:39.260Z,11.90
2019-05-16T16:00:10.450Z,11.90
2019-05-16T16:02:39.570Z,11.80
2019-05-16T16:05:09.084Z,11.80
2019-05-16T16:07:38.270Z,11.80
2019-05-16T16:10:08.276Z,11.80
2019-05-16T16:12:37.757Z,11.80
2019-05-16T16:15:07.979Z,11.80
2019-05-16T16:17:38.019Z,11.90
2019-05-16T16:20:10.402Z,11.80
2019-05-16T16:22:38.222Z,11.90
2019-05-16T16:25:07.605Z,11.90
2019-05-16T16:27:36.473Z,11.80
2019-05-16T16:30:06.812Z,11.90
2019-05-16T16:32:38.034Z,11.80
2019-05-16T16:35:08.033Z,11.80
2019-05-16T16:37:37.988Z,11.80
2019-05-16T16:40:11.097Z,11.80
2019-05-16T16:42:38.174Z,11.80
2019-05-16T16:45:07.441Z,11.90
2019-05-16T16:47:37.788Z,11.80
2019-05-16T16:50:09.370Z,11.70
2019-05-16T16:52:38.342Z,11.70
2019-05-16T16:55:07.871Z,11.70
2019-05-16T16:57:38.385Z,11.70
2019-05-16T17:00:09.318Z,11.70
2019-05-16T17:02:38.263Z,11.80
2019-05-16T17:05:11.625Z,11.80
2019-05-16T17:07:38.199Z,11.80
2019-05-16T17:10:08.570Z,11.80
2019-05-16T17:12:41.278Z,11.70
2019-05-16T17:15:09.204Z,11.70
2019-05-16T17:17:38.366Z,11.70
2019-05-16T17:20:09.088Z,11.60
2019-05-16T17:22:38.016Z,11.60
2019-05-16T17:25:08.145Z,11.40
2019-05-16T17:27:37.674Z,11.30
2019-05-16T17:30:13.789Z,11.40
2019-05-16T17:32:42.669Z,11.50
2019-05-16T17:35:11.940Z,11.40
2019-05-16T17:37:40.867Z,11.50
2019-05-16T17:40:09.858Z,11.50
2019-05-16T17:42:38.879Z,11.50
2019-05-16T17:45:08.352Z,11.50
2019-05-16T17:47:37.456Z,11.40
2019-05-16T17:50:07.538Z,11.30
2019-05-16T17:52:37.035Z,11.40
2019-05-16T17:55:07.328Z,11.30
2019-05-16T17:57:37.175Z,11.40
2019-05-16T18:00:07.047Z,11.50
2019-05-16T18:02:37.337Z,11.40
2019-05-16T18:05:07.552Z,11.30
2019-05-16T18:07:36.966Z,11.30
2019-05-16T18:10:07.500Z,11.20
2019-05-16T18:12:37.339Z,11.20
2019-05-16T18:15:08.522Z,11.20
2019-05-16T18:17:37.582Z,11.20
2019-05-16T18:20:07.092Z,11.20
2019-05-16T18:22:36.608Z,11.30
2019-05-16T18:25:07.027Z,11.50
2019-05-16T18:27:37.564Z,11.50
2019-05-16T18:30:07.411Z,11.50
2019-05-16T18:32:37.449Z,11.50
2019-05-16T18:35:07.467Z,11.50
2019-05-16T18:37:36.442Z,11.50
2019-05-16T18:40:07.221Z,11.50
2019-05-16T18:42:36.971Z,11.50
2019-05-16T18:45:07.282Z,11.50
2019-05-16T18:47:37.851Z,11.50
2019-05-16T18:50:07.755Z,11.50
2019-05-16T18:52:38.989Z,11.60
2019-05-16T18:55:08.812Z,11.50
2019-05-16T18:57:37.932Z,11.50
2019-05-16T19:00:10.883Z,11.50
2019-05-16T19:02:38.896Z,11.50
2019-05-16T19:05:08.703Z,11.50
2019-05-16T19:07:37.523Z,11.60
2019-05-16T19:10:07.317Z,11.60
2019-05-16T19:12:37.166Z,11.50
2019-05-16T19:15:07.367Z,11.50
2019-05-16T19:17:36.514Z,11.40
2019-05-16T19:20:06.660Z,11.40
2019-05-16T19:22:37.195Z,11.40
2019-05-16T19:25:07.263Z,11.50
2019-05-16T19:27:37.036Z,11.40
2019-05-16T19:30:06.927Z,11.30
2019-05-16T19:32:38.992Z,11.30
2019-05-16T19:35:07.090Z,11.30
2019-05-16T19:37:40.421Z,11.30
2019-05-16T19:40:07.319Z,11.30
2019-05-16T19:42:36.779Z,11.30
2019-05-16T19:45:06.605Z,11.30
2019-05-16T19:47:40.356Z,11.30
2019-05-16T19:50:07.835Z,11.30
2019-05-16T19:52:36.914Z,11.40
2019-05-16T19:55:07.082Z,11.40
2019-05-16T19:57:37.447Z,11.40
2019-05-16T20:00:07.124Z,11.40
2019-05-16T20:02:36.841Z,11.30
2019-05-16T20:05:06.596Z,11.30
2019-05-16T20:07:37.224Z,11.30
2019-05-16T20:10:09.579Z,11.30
2019-05-16T20:12:38.580Z,11.30
2019-05-16T20:15:11.660Z,11.30
2019-05-16T20:17:51.010Z,11.30
2019-05-16T20:20:10.326Z,11.30
2019-05-16T20:22:39.458Z,11.30
2019-05-16T20:25:08.927Z,11.30
2019-05-16T20:27:38.092Z,11.40
2019-05-16T20:30:07.597Z,11.30
2019-05-16T20:32:37.123Z,11.30
2019-05-16T20:35:08.916Z,11.30
2019-05-16T20:37:37.310Z,11.30
2019-05-16T20:40:08.915Z,11.30
2019-05-16T20:42:38.383Z,11.40
2019-05-16T20:45:09.311Z,11.30
2019-05-16T20:47:38.615Z,11.30
2019-05-16T20:50:08.515Z,11.30
2019-05-16T20:52:38.238Z,11.30
2019-05-16T20:55:07.652Z,11.40
2019-05-16T20:57:37.751Z,11.40
2019-05-16T21:00:08.303Z,11.30
2019-05-16T21:02:38.016Z,11.30
2019-05-16T21:05:07.908Z,11.40
2019-05-16T21:07:37.574Z,11.40
2019-05-16T21:10:08.061Z,11.40
2019-05-16T21:12:40.113Z,11.40
2019-05-16T21:15:09.539Z,11.40
2019-05-16T21:17:38.374Z,11.30
2019-05-16T21:20:08.710Z,11.30
2019-05-16T21:22:37.516Z,11.40
2019-05-16T21:25:06.873Z,11.40
2019-05-16T21:27:37.818Z,11.30
2019-05-16T21:30:07.390Z,11.30
2019-05-16T21:32:36.758Z,11.30
2019-05-16T21:35:07.132Z,11.20
2019-05-16T21:37:37.434Z,11.20
2019-05-16T21:40:08.002Z,11.20
2019-05-16T21:42:37.096Z,11.30
2019-05-16T21:45:07.376Z,11.30
2019-05-16T21:47:36.935Z,11.30
2019-05-16T21:50:07.395Z,11.20
2019-05-16T21:52:36.804Z,11.20
2019-05-16T21:55:07.139Z,11.30
2019-05-16T21:57:37.828Z,11.20
2019-05-16T22:00:13.075Z,11.10
2019-05-16T22:02:41.981Z,11.10
2019-05-16T22:05:11.020Z,11.10
2019-05-16T22:07:39.842Z,11.10
2019-05-16T22:10:09.172Z,11.20
2019-05-16T22:12:38.502Z,11.10
2019-05-16T22:15:08.598Z,11.10
2019-05-16T22:17:37.479Z,11.00
2019-05-16T22:20:07.149Z,11.10
2019-05-16T22:22:38.213Z,11.20
2019-05-16T22:25:07.927Z,11.20
2019-05-16T22:27:36.751Z,11.20
2019-05-16T22:30:09.076Z,11.10
2019-05-16T22:32:37.962Z,11.20
2019-05-16T22:35:07.927Z,11.20
2019-05-16T22:37:49.301Z,11.20
2019-05-16T22:40:08.364Z,11.20
2019-05-16T22:42:37.632Z,11.20
2019-05-16T22:45:08.828Z,11.20
2019-05-16T22:47:38.478Z,11.10
2019-05-16T22:50:08.799Z,11.10
2019-05-16T22:52:37.766Z,11.20
2019-05-16T22:55:07.626Z,11.10
